Time;durP1;ratioP1;P1;durP2;ratioP2;P2;SDS_P1;SDS_P2;PMS_P1;PMS_P2;Temp;Humidity;BMP_temperature;BMP_pressure;BME280_temperature;BME280_humidity;BME280_pressure;Samples;Min_cycle;Max_cycle;Signal;HPM_P1;HPM_P2
2022/01/07 00:00:40;;;;;;;14.07;5.43;;;;;;;0.75;52.78;101217.59;5048443;28;20037;-74
2022/01/07 00:03:11;;;;;;;13.10;5.65;;;;;;;1.14;51.89;101210.97;5048280;28;20045;-73
2022/01/07 00:05:37;;;;;;;12.80;5.43;;;;;;;1.05;52.03;101211.78;5054016;28;20423;-73
2022/01/07 00:08:03;;;;;;;18.23;5.55;;;;;;;1.20;51.93;101206.69;5039213;28;20064;-73
2022/01/07 00:10:28;;;;;;;13.77;4.82;;;;;;;1.37;51.20;101193.88;5041529;28;20044;-73
2022/01/07 00:12:56;;;;;;;17.67;6.68;;;;;;;1.00;52.44;101198.88;5047341;28;20123;-72
2022/01/07 00:15:24;;;;;;;20.77;5.90;;;;;;;1.05;51.84;101192.03;5034687;28;20068;-74
2022/01/07 00:17:50;;;;;;;23.10;6.15;;;;;;;1.25;51.75;101191.28;5035415;28;20589;-73
2022/01/07 00:20:17;;;;;;;11.30;4.57;;;;;;;0.75;53.03;101186.72;5024977;28;20045;-72
2022/01/07 00:22:46;;;;;;;19.33;5.90;;;;;;;0.82;52.79;101193.66;5038675;28;20068;-73
2022/01/07 00:25:16;;;;;;;14.32;5.45;;;;;;;1.23;51.79;101191.25;5043221;28;20110;-72
2022/01/07 00:27:42;;;;;;;11.77;4.72;;;;;;;1.10;51.99;101180.06;5040212;28;20052;-73
2022/01/07 00:30:10;;;;;;;12.77;4.53;;;;;;;1.29;51.06;101180.13;5052618;28;20036;-73
2022/01/07 00:32:36;;;;;;;12.75;4.75;;;;;;;1.48;50.94;101166.50;5029781;28;20048;-74
2022/01/07 00:35:02;;;;;;;15.63;4.90;;;;;;;1.40;51.19;101172.44;5045405;28;20210;-72
2022/01/07 00:37:28;;;;;;;19.42;4.90;;;;;;;1.55;50.57;101167.38;5034085;28;20747;-72
2022/01/07 00:39:53;;;;;;;15.95;5.20;;;;;;;1.33;51.32;101166.41;5053509;28;20107;-72
2022/01/07 00:42:19;;;;;;;11.50;4.10;;;;;;;1.17;51.21;101159.47;5047295;28;20044;-73
2022/01/07 00:44:45;;;;;;;7.32;3.53;;;;;;;1.44;50.80;101154.47;5051763;28;20033;-72
2022/01/07 00:47:10;;;;;;;15.32;4.40;;;;;;;1.29;50.91;101150.06;5049347;28;20451;-73
2022/01/07 00:49:36;;;;;;;19.95;5.25;;;;;;;0.64;52.67;101154.09;5019500;28;20032;-72
2022/01/07 00:52:01;;;;;;;10.07;3.83;;;;;;;0.87;52.50;101148.19;5033985;28;20181;-73
2022/01/07 00:54:28;;;;;;;17.15;4.88;;;;;;;0.98;52.01;101151.69;5009716;28;20510;-74
2022/01/07 00:56:53;;;;;;;10.40;3.60;;;;;;;1.42;50.62;101145.00;5052134;28;20239;-72
2022/01/07 00:59:19;;;;;;;10.10;4.05;;;;;;;1.53;50.64;101138.16;5034244;28;20037;-73
2022/01/07 01:01:46;;;;;;;10.95;4.97;;;;;;;1.25;50.91;101142.34;5015971;28;20042;-72
2022/01/07 01:04:12;;;;;;;13.43;4.00;;;;;;;0.93;51.81;101145.66;5054285;28;20430;-72
2022/01/07 01:06:40;;;;;;;12.50;3.58;;;;;;;1.50;50.20;101126.09;5046922;28;20054;-72
2022/01/07 01:09:10;;;;;;;13.50;3.70;;;;;;;1.58;50.43;101127.88;5055497;28;20054;-72
2022/01/07 01:11:39;;;;;;;15.85;4.10;;;;;;;1.28;51.49;101126.88;5047460;28;20081;-72
2022/01/07 01:14:08;;;;;;;13.32;4.28;;;;;;;1.49;50.95;101131.28;5036916;28;20069;-72
2022/01/07 01:16:35;;;;;;;11.05;3.42;;;;;;;1.22;51.69;101129.47;5050362;28;20040;-73
2022/01/07 01:19:01;;;;;;;12.98;5.25;;;;;;;0.95;52.25;101133.66;5051635;28;20406;-71
2022/01/07 01:21:26;;;;;;;13.05;3.90;;;;;;;0.85;52.74;101119.03;5051251;28;20056;-71
2022/01/07 01:23:52;;;;;;;16.88;3.97;;;;;;;0.81;52.97;101119.84;5050983;28;20505;-73
2022/01/07 01:26:20;;;;;;;13.13;3.72;;;;;;;0.75;53.26;101109.53;5021639;28;20709;-74
2022/01/07 01:28:47;;;;;;;13.90;4.00;;;;;;;0.23;54.62;101116.13;5052401;28;20730;-72
2022/01/07 01:31:17;;;;;;;9.02;3.35;;;;;;;0.37;54.91;101112.78;5048552;28;20051;-75
2022/01/07 01:33:44;;;;;;;8.20;2.95;;;;;;;0.64;54.03;101112.94;5030448;28;20090;-73
2022/01/07 01:36:11;;;;;;;11.63;3.00;;;;;;;-0.02;56.16;101097.09;5039288;28;20652;-73
2022/01/07 01:38:42;;;;;;;14.30;3.88;;;;;;;0.57;54.81;101094.88;5035704;28;20048;-72
2022/01/07 01:41:12;;;;;;;12.65;3.60;;;;;;;0.65;54.49;101101.78;5028993;28;20033;-72
2022/01/07 01:43:38;;;;;;;12.38;3.95;;;;;;;0.53;54.74;101094.00;5014800;28;20572;-72
2022/01/07 01:46:04;;;;;;;9.85;2.70;;;;;;;-0.17;56.74;101069.59;5058888;28;20041;-73
2022/01/07 01:48:29;;;;;;;9.07;2.88;;;;;;;-0.49;57.84;101081.28;5031775;28;20057;-74
2022/01/07 01:50:56;;;;;;;11.10;2.90;;;;;;;0.42;55.63;101083.66;5045427;28;20120;-73
2022/01/07 01:53:24;;;;;;;10.27;3.55;;;;;;;0.27;55.93;101088.72;5034114;28;20049;-73
2022/01/07 01:55:52;;;;;;;11.85;3.55;;;;;;;0.17;56.10;101086.94;5048711;28;20040;-73
2022/01/07 01:58:17;;;;;;;12.82;3.83;;;;;;;0.64;55.02;101071.78;5033540;28;20044;-74
2022/01/07 02:00:43;;;;;;;9.50;3.08;;;;;;;0.47;55.56;101071.69;5022304;28;20033;-74
2022/01/07 02:03:08;;;;;;;14.98;3.60;;;;;;;-0.01;56.73;101064.56;5035950;28;20045;-71
2022/01/07 02:05:34;;;;;;;8.40;2.78;;;;;;;-0.62;58.52;101064.91;5031276;28;20542;-74
2022/01/07 02:08:00;;;;;;;14.73;4.22;;;;;;;-0.50;58.25;101059.88;5049493;28;20527;-73
2022/01/07 02:10:26;;;;;;;9.75;3.15;;;;;;;-0.18;57.65;101054.16;5032699;28;20029;-74
2022/01/07 02:12:52;;;;;;;14.65;3.70;;;;;;;-0.68;59.57;101037.47;5051717;28;20040;-73
2022/01/07 02:15:20;;;;;;;6.25;3.22;;;;;;;0.33;56.59;101046.78;5023823;28;20041;-73
2022/01/07 02:17:48;;;;;;;11.02;3.85;;;;;;;-0.40;58.24;101040.28;5047653;28;20049;-74
2022/01/07 02:20:16;;;;;;;11.27;3.25;;;;;;;-0.50;58.72;101039.34;5056669;28;20036;-74
2022/01/07 02:22:42;;;;;;;8.23;3.97;;;;;;;-0.62;58.58;101032.38;5039868;28;20045;-73
2022/01/07 02:25:09;;;;;;;5.25;3.05;;;;;;;-0.69;59.22;101025.47;5023591;28;20040;-72
2022/01/07 02:27:37;;;;;;;9.32;4.18;;;;;;;-0.04;57.44;101031.13;5034610;28;20041;-72
2022/01/07 02:30:05;;;;;;;13.38;4.18;;;;;;;-0.81;59.50;101027.94;5032133;28;20690;-72
2022/01/07 02:32:30;;;;;;;11.57;3.92;;;;;;;-0.53;58.53;101033.31;5027960;28;20048;-72
2022/01/07 02:34:56;;;;;;;9.05;3.45;;;;;;;-0.21;57.90;101019.03;5040420;28;20510;-72
2022/01/07 02:37:22;;;;;;;11.60;4.57;;;;;;;-0.30;58.00;101010.38;5058450;28;20088;-72
2022/01/07 02:39:49;;;;;;;11.95;4.18;;;;;;;-0.35;58.51;100994.94;5050870;28;20155;-72
2022/01/07 02:42:14;;;;;;;8.27;3.70;;;;;;;-1.07;60.15;101005.41;5024249;28;20528;-71
2022/01/07 02:44:40;;;;;;;9.15;3.42;;;;;;;-0.83;59.98;101007.38;5038687;28;20075;-72
2022/01/07 02:47:05;;;;;;;19.92;4.78;;;;;;;-0.52;58.88;100979.41;5019875;28;20041;-72
2022/01/07 02:49:31;;;;;;;7.10;4.07;;;;;;;-0.00;57.25;100989.16;5019496;28;20037;-72
2022/01/07 02:51:56;;;;;;;10.77;5.03;;;;;;;-0.36;57.98;100976.09;5054300;28;20068;-72
2022/01/07 02:54:24;;;;;;;13.45;4.72;;;;;;;-0.15;57.59;100974.50;5025770;28;20067;-72
2022/01/07 02:56:50;;;;;;;9.48;4.18;;;;;;;0.28;56.22;100974.75;5045695;28;20162;-72
2022/01/07 02:59:18;;;;;;;9.85;3.90;;;;;;;0.46;55.89;100969.69;5021887;28;21033;-72
2022/01/07 03:01:43;;;;;;;12.07;4.25;;;;;;;0.31;56.16;100959.34;5039026;28;20060;-72
2022/01/07 03:04:09;;;;;;;10.02;3.85;;;;;;;0.17;56.42;100958.44;5047992;28;20034;-72
2022/01/07 03:06:35;;;;;;;14.65;4.22;;;;;;;-0.38;57.93;100961.53;5045498;28;20037;-74
2022/01/07 03:09:03;;;;;;;12.77;4.18;;;;;;;-0.11;57.42;100960.00;5037213;28;20155;-73
2022/01/07 03:11:28;;;;;;;14.30;5.03;;;;;;;-0.27;57.69;100953.91;5046317;28;20090;-74
2022/01/07 03:13:56;;;;;;;11.55;4.70;;;;;;;-0.46;58.38;100958.94;5044288;28;20036;-73
2022/01/07 03:16:22;;;;;;;15.75;4.45;;;;;;;0.01;57.12;100942.06;5024989;28;20041;-73
2022/01/07 03:18:48;;;;;;;8.10;3.58;;;;;;;-0.43;58.31;100947.81;5049454;28;20041;-73
2022/01/07 03:21:14;;;;;;;11.13;3.63;;;;;;;-0.11;57.44;100940.28;5038967;28;20068;-75
2022/01/07 03:23:41;;;;;;;9.10;4.82;;;;;;;-0.59;59.59;100947.69;5025100;28;20064;-74
2022/01/07 03:26:10;;;;;;;13.73;4.57;;;;;;;-0.01;57.08;100941.22;5026037;28;20040;-74
2022/01/07 03:28:39;;;;;;;13.60;4.57;;;;;;;-0.09;57.79;100937.72;5043890;28;20515;-74
2022/01/07 03:31:07;;;;;;;13.10;4.53;;;;;;;-0.10;57.64;100939.44;5048384;28;20063;-73
2022/01/07 03:33:33;;;;;;;9.23;3.72;;;;;;;0.09;57.16;100936.97;5038242;28;20426;-74
2022/01/07 03:35:58;;;;;;;7.30;3.65;;;;;;;-0.63;59.30;100938.25;5038435;28;20036;-74
2022/01/07 03:38:24;;;;;;;11.27;4.05;;;;;;;-0.44;58.74;100921.25;5020499;28;20100;-72
2022/01/07 03:40:49;;;;;;;11.07;3.83;;;;;;;-0.53;58.98;100928.03;5046448;28;20029;-73
2022/01/07 03:43:15;;;;;;;9.95;4.80;;;;;;;-0.48;58.87;100929.81;5049075;28;20040;-73
2022/01/07 03:45:43;;;;;;;12.63;3.80;;;;;;;-0.15;58.14;100926.59;5047326;28;20063;-73
2022/01/07 03:48:12;;;;;;;9.15;4.45;;;;;;;-0.30;58.45;100916.22;5031251;28;20052;-70
2022/01/07 03:50:38;;;;;;;13.02;4.88;;;;;;;-0.40;58.90;100910.16;5039282;28;20036;-70
2022/01/07 03:53:04;;;;;;;7.43;3.90;;;;;;;-0.65;59.32;100903.16;5056363;28;20123;-70
2022/01/07 03:55:31;;;;;;;7.72;4.32;;;;;;;0.11;57.44;100896.72;5048382;28;20100;-69
2022/01/07 03:57:57;;;;;;;14.50;4.40;;;;;;;-0.20;58.29;100904.28;5040317;28;20041;-71
2022/01/07 04:00:34;;;;;;;8.60;3.83;;;;;;;-0.05;57.72;100898.34;5055052;28;20595;-71
2022/01/07 04:03:02;;;;;;;8.27;4.13;;;;;;;0.25;56.94;100889.88;5033660;28;20604;-71
2022/01/07 04:05:27;;;;;;;12.38;4.80;;;;;;;-0.51;59.17;100892.97;5029188;28;20057;-72
2022/01/07 04:07:53;;;;;;;11.63;5.10;;;;;;;0.18;57.33;100890.72;5042647;28;20075;-71
2022/01/07 04:10:21;;;;;;;11.50;4.80;;;;;;;-0.71;59.13;100892.84;5052617;28;20033;-71
2022/01/07 04:12:46;;;;;;;9.75;4.88;;;;;;;-0.16;58.38;100886.31;5035255;28;20041;-71
2022/01/07 04:15:16;;;;;;;8.80;3.95;;;;;;;-0.06;58.08;100883.78;5039853;28;20487;-71
2022/01/07 04:17:46;;;;;;;8.88;4.47;;;;;;;0.08;57.57;100877.00;5053317;28;20134;-73
2022/01/07 04:20:15;;;;;;;11.00;4.68;;;;;;;-0.44;58.90;100869.88;5052447;28;20433;-71
2022/01/07 04:22:41;;;;;;;8.77;4.38;;;;;;;0.09;57.71;100863.28;5043681;28;20491;-72
2022/01/07 04:25:09;;;;;;;10.82;4.65;;;;;;;-0.24;58.47;100858.88;5035653;28;20044;-73
2022/01/07 04:27:35;;;;;;;8.63;5.28;;;;;;;-0.67;59.83;100862.06;5038380;28;20048;-72
2022/01/07 04:30:01;;;;;;;9.38;4.53;;;;;;;0.04;57.89;100855.56;5052613;28;20396;-72
2022/01/07 04:32:33;;;;;;;16.40;6.10;;;;;;;-0.76;59.90;100864.56;5053710;28;20503;-73
2022/01/07 04:35:00;;;;;;;11.35;4.80;;;;;;;-0.33;58.99;100857.09;5045029;28;20024;-73
2022/01/07 04:37:36;;;;;;;10.65;5.03;;;;;;;-0.28;59.02;100858.00;5055639;28;20036;-72
2022/01/07 04:40:05;;;;;;;12.52;5.45;;;;;;;-0.74;60.00;100859.47;5056911;28;20024;-73
2022/01/07 04:42:30;;;;;;;8.55;5.88;;;;;;;0.04;57.93;100857.28;5046967;28;20071;-72
2022/01/07 04:44:56;;;;;;;15.60;5.85;;;;;;;-0.56;59.63;100850.16;5037320;28;20710;-74
2022/01/07 04:47:21;;;;;;;10.70;4.95;;;;;;;-0.52;59.51;100842.47;5025901;28;20068;-73
2022/01/07 04:49:47;;;;;;;13.70;5.22;;;;;;;-0.41;59.08;100838.25;5053288;28;20032;-71
2022/01/07 04:52:12;;;;;;;10.38;5.80;;;;;;;-0.56;59.75;100846.72;5026610;28;20094;-73
2022/01/07 04:54:37;;;;;;;11.73;6.20;;;;;;;-0.67;60.00;100828.69;5036168;28;20029;-72
2022/01/07 04:57:03;;;;;;;8.75;5.85;;;;;;;-1.18;61.85;100847.97;5055062;28;20084;-72
2022/01/07 04:59:29;;;;;;;8.85;5.25;;;;;;;-0.25;59.24;100829.75;5039470;28;20056;-73
2022/01/07 05:01:54;;;;;;;12.38;5.32;;;;;;;-0.57;59.72;100825.34;5045954;28;20041;-73
2022/01/07 05:04:20;;;;;;;12.02;6.35;;;;;;;-0.38;58.98;100807.44;5044300;28;20032;-74
2022/01/07 05:06:47;;;;;;;13.68;6.47;;;;;;;-0.64;59.58;100815.00;5035143;28;20555;-73
2022/01/07 05:09:16;;;;;;;15.18;5.68;;;;;;;-0.26;59.02;100816.91;5022044;28;20187;-72
2022/01/07 05:11:48;;;;;;;12.52;5.47;;;;;;;-0.24;59.24;100816.06;5036135;28;20433;-75
2022/01/07 05:14:14;;;;;;;7.13;4.28;;;;;;;-0.39;59.32;100801.47;5054774;28;20024;-76
2022/01/07 05:16:40;;;;;;;9.27;5.63;;;;;;;-0.36;59.50;100806.59;5045010;28;20123;-73
2022/01/07 05:19:06;;;;;;;9.77;5.47;;;;;;;-0.17;59.14;100802.41;5039074;28;20135;-73
2022/01/07 05:21:32;;;;;;;7.70;5.10;;;;;;;-0.07;58.59;100805.84;5035870;28;20136;-73
2022/01/07 05:24:06;;;;;;;12.20;5.82;;;;;;;-0.39;59.16;100798.03;5037004;28;20041;-74
2022/01/07 05:26:34;;;;;;;10.95;5.15;;;;;;;-0.22;58.63;100798.09;5054486;28;20093;-73
2022/01/07 05:29:00;;;;;;;9.48;5.18;;;;;;;-0.23;58.87;100802.38;5021052;28;20051;-72
2022/01/07 05:31:26;;;;;;;10.45;5.80;;;;;;;-0.23;58.29;100786.97;5032754;28;20044;-73
2022/01/07 05:33:53;;;;;;;9.57;4.97;;;;;;;-0.03;58.25;100792.16;5035078;28;20055;-73
2022/01/07 05:36:20;;;;;;;7.57;4.55;;;;;;;-0.08;57.97;100777.56;5027027;28;20115;-72
2022/01/07 05:38:48;;;;;;;6.85;4.88;;;;;;;-0.24;58.51;100780.09;5023727;28;20040;-73
2022/01/07 05:41:15;;;;;;;7.82;4.13;;;;;;;-0.36;58.90;100770.63;5056028;28;20123;-73
2022/01/07 05:43:41;;;;;;;8.82;5.13;;;;;;;-0.07;58.21;100776.72;5036610;28;20072;-74
2022/01/07 05:46:10;;;;;;;11.75;5.75;;;;;;;-0.29;58.60;100773.25;5039232;28;20047;-73
2022/01/07 05:48:36;;;;;;;7.30;5.05;;;;;;;-0.10;58.29;100763.84;5034504;28;20431;-74
2022/01/07 05:51:02;;;;;;;9.80;5.40;;;;;;;-0.04;57.87;100779.28;5023939;28;20044;-75
2022/01/07 05:53:27;;;;;;;11.40;5.18;;;;;;;-0.26;58.68;100771.53;5039700;28;20033;-75
2022/01/07 05:55:53;;;;;;;8.13;4.80;;;;;;;-0.13;58.30;100764.72;5012472;28;20028;-74
2022/01/07 05:58:21;;;;;;;11.25;4.88;;;;;;;-0.10;58.80;100766.44;5041705;28;20040;-75
2022/01/07 06:00:48;;;;;;;7.25;5.82;;;;;;;-0.29;59.27;100755.25;5035893;28;20040;-75
2022/01/07 06:03:15;;;;;;;9.05;4.88;;;;;;;-0.36;59.31;100760.38;5038701;28;20060;-74
2022/01/07 06:05:40;;;;;;;9.75;5.47;;;;;;;-0.43;59.14;100747.50;5051867;28;20064;-73
2022/01/07 06:08:06;;;;;;;14.50;5.95;;;;;;;-0.33;59.30;100749.25;5027357;28;20171;-73
2022/01/07 06:10:33;;;;;;;9.43;5.63;;;;;;;0.08;58.31;100740.78;5041428;28;20074;-73
2022/01/07 06:12:59;;;;;;;8.30;5.85;;;;;;;-0.01;58.08;100740.78;5047509;28;20040;-74
2022/01/07 06:15:24;;;;;;;6.75;4.90;;;;;;;0.09;58.54;100736.50;5034263;28;20061;-73
2022/01/07 06:17:50;;;;;;;12.57;5.75;;;;;;;-0.45;59.70;100736.38;5038146;28;21807;-73
2022/01/07 06:20:15;;;;;;;9.77;6.15;;;;;;;-0.28;59.49;100742.44;5052419;28;20040;-74
2022/01/07 06:22:41;;;;;;;9.27;5.65;;;;;;;-0.06;58.38;100748.44;5057924;28;20930;-73
2022/01/07 06:25:07;;;;;;;8.55;5.38;;;;;;;-0.14;58.69;100745.88;5042152;28;20036;-73
2022/01/07 06:27:32;;;;;;;9.95;4.75;;;;;;;-0.11;58.36;100755.31;5056018;28;20036;-73
2022/01/07 06:29:58;;;;;;;10.38;5.18;;;;;;;0.15;57.71;100751.94;5034074;28;20086;-73
2022/01/07 06:32:26;;;;;;;11.40;5.80;;;;;;;-0.15;59.28;100753.56;5029523;28;20052;-74
2022/01/07 06:34:54;;;;;;;12.27;6.65;;;;;;;0.16;58.24;100749.34;5041319;28;20120;-74
2022/01/07 06:37:20;;;;;;;9.73;5.15;;;;;;;0.52;57.09;100742.50;5040546;28;20120;-73
2022/01/07 06:39:46;;;;;;;8.63;5.80;;;;;;;0.12;58.55;100742.47;5022533;28;20037;-74
2022/01/07 06:42:12;;;;;;;10.70;5.43;;;;;;;0.44;57.43;100746.81;5056930;28;20053;-74
2022/01/07 06:44:37;;;;;;;9.10;5.68;;;;;;;0.02;58.71;100743.34;5057092;28;20032;-73
2022/01/07 06:47:04;;;;;;;10.77;6.13;;;;;;;0.41;57.67;100739.97;5041921;28;20174;-73
2022/01/07 06:49:30;;;;;;;7.75;4.57;;;;;;;-0.07;58.74;100735.63;5050207;28;20032;-73
2022/01/07 06:51:57;;;;;;;14.70;6.15;;;;;;;-0.48;60.81;100749.19;5033042;28;20037;-72
2022/01/07 06:54:23;;;;;;;13.90;6.38;;;;;;;-0.23;60.09;100739.88;5055635;28;20031;-73
2022/01/07 06:56:49;;;;;;;6.53;5.50;;;;;;;-0.47;60.44;100733.78;5040952;28;20032;-74
2022/01/07 06:59:17;;;;;;;12.20;5.63;;;;;;;0.04;58.95;100734.78;5033767;28;20119;-75
2022/01/07 07:01:47;;;;;;;10.23;6.32;;;;;;;-0.40;60.29;100732.94;5040873;28;20142;-73
2022/01/07 07:04:12;;;;;;;9.38;5.40;;;;;;;0.00;59.32;100738.19;5058996;28;20829;-74
2022/01/07 07:06:38;;;;;;;8.75;5.00;;;;;;;0.11;58.80;100735.63;5058186;28;20074;-75
2022/01/07 07:09:04;;;;;;;9.80;5.05;;;;;;;0.27;59.03;100736.50;5037921;28;20473;-75
2022/01/07 07:11:32;;;;;;;10.95;5.32;;;;;;;-0.35;60.45;100732.97;5026214;28;20033;-75
2022/01/07 07:13:58;;;;;;;14.98;5.78;;;;;;;0.13;59.11;100731.38;5039364;28;20048;-74
2022/01/07 07:16:23;;;;;;;13.30;5.30;;;;;;;-0.18;59.86;100727.88;5056328;28;20037;-74
2022/01/07 07:18:49;;;;;;;10.35;5.80;;;;;;;-0.11;59.29;100741.59;5054200;28;20044;-73
2022/01/07 07:21:15;;;;;;;8.88;5.57;;;;;;;-0.33;60.24;100748.38;5026748;28;20671;-73
2022/01/07 07:23:40;;;;;;;9.98;5.22;;;;;;;-0.13;60.47;100742.44;5031452;28;20048;-74
2022/01/07 07:26:06;;;;;;;13.80;7.13;;;;;;;0.50;58.64;100744.22;5042826;28;20028;-74
2022/01/07 07:28:35;;;;;;;12.43;5.97;;;;;;;0.24;58.52;100742.50;5058290;28;20055;-74
2022/01/07 07:31:04;;;;;;;10.32;6.10;;;;;;;0.17;59.18;100737.38;5040938;28;20039;-73
2022/01/07 07:33:42;;;;;;;16.45;6.13;;;;;;;0.47;58.34;100745.06;5036526;28;20742;-75
2022/01/07 07:36:29;;;;;;;13.43;6.07;;;;;;;0.13;59.13;100744.22;5031793;28;20043;-75
2022/01/07 07:38:58;;;;;;;13.65;6.10;;;;;;;0.76;57.60;100756.22;5053510;28;20080;-74
2022/01/07 07:41:23;;;;;;;11.70;6.38;;;;;;;0.46;58.32;100763.09;5056363;28;20044;-74
2022/01/07 07:43:52;;;;;;;10.52;5.43;;;;;;;0.36;59.17;100763.94;5038517;28;20392;-75
2022/01/07 07:46:19;;;;;;;10.23;5.30;;;;;;;0.30;59.30;100756.22;5055929;28;20062;-75
2022/01/07 07:48:46;;;;;;;10.80;6.05;;;;;;;0.56;58.19;100757.06;5054231;28;20049;-75
2022/01/07 07:51:12;;;;;;;8.73;5.32;;;;;;;0.19;59.00;100759.66;5049651;28;20082;-75
2022/01/07 07:53:39;;;;;;;10.25;5.70;;;;;;;0.61;58.23;100752.81;5053074;28;20055;-75
2022/01/07 07:56:05;;;;;;;14.93;5.55;;;;;;;0.27;58.94;100752.78;5037649;28;20056;-74
2022/01/07 07:58:33;;;;;;;8.13;5.05;;;;;;;0.26;59.26;100745.09;5037904;28;20049;-74
2022/01/07 08:01:00;;;;;;;7.55;5.35;;;;;;;0.24;59.30;100757.94;5039612;28;21013;-73
2022/01/07 08:03:25;;;;;;;13.27;6.05;;;;;;;0.48;58.75;100745.97;5040545;28;20052;-73
2022/01/07 08:05:51;;;;;;;9.52;5.13;;;;;;;0.52;58.45;100752.78;5039902;28;20040;-75
2022/01/07 08:08:17;;;;;;;11.88;6.40;;;;;;;0.15;58.90;100752.78;5052228;28;20082;-76
2022/01/07 08:10:51;;;;;;;7.65;4.38;;;;;;;-0.05;60.49;100751.91;5036966;28;20036;-74
2022/01/07 08:15:58;;;;;;;14.23;6.65;;;;;;;0.26;59.12;100751.06;5053735;28;20052;-74
2022/01/07 08:16:23;;;;;;;10.93;5.47;;;;;;;0.59;58.23;100761.34;5052519;28;20487;-73
2022/01/07 08:18:53;;;;;;;7.20;5.07;;;;;;;0.26;59.49;100758.78;5026176;28;20538;-73
2022/01/07 08:21:20;;;;;;;10.68;5.55;;;;;;;0.20;59.80;100753.63;5039095;28;20663;-74
2022/01/07 08:23:46;;;;;;;8.82;4.68;;;;;;;0.64;58.68;100757.94;5022854;28;20466;-76
2022/01/07 08:26:14;;;;;;;8.27;4.88;;;;;;;0.43;58.96;100747.66;5027483;28;20091;-74
2022/01/07 08:28:45;;;;;;;9.10;5.65;;;;;;;0.60;58.46;100751.06;5034753;28;20561;-76
2022/01/07 08:36:31;;;;;;;10.20;5.57;;;;;;;0.34;59.71;100724.50;5053650;28;20040;-77
2022/01/07 08:38:59;;;;;;;14.40;5.90;;;;;;;0.83;58.32;100738.19;5027354;28;20358;-74
2022/01/07 08:41:30;;;;;;;9.15;5.82;;;;;;;0.45;59.30;100730.50;5056739;28;20044;-74
2022/01/07 08:43:56;;;;;;;9.55;5.55;;;;;;;1.28;57.02;100725.19;5053484;28;20040;-74
2022/01/07 08:46:21;;;;;;;9.73;5.88;;;;;;;-0.09;60.93;100729.63;5054739;28;20068;-74
2022/01/07 08:48:47;;;;;;;9.05;5.28;;;;;;;0.38;59.55;100724.50;5054534;28;20137;-74
2022/01/07 08:51:13;;;;;;;14.27;5.78;;;;;;;-0.24;61.74;100738.13;5039609;28;20037;-74
2022/01/07 08:53:42;;;;;;;9.05;5.80;;;;;;;0.36;59.99;100738.22;5033044;28;20551;-74
2022/01/07 08:56:09;;;;;;;8.65;6.40;;;;;;;1.11;57.54;100731.25;5043860;28;20103;-73
2022/01/07 08:58:35;;;;;;;8.15;6.05;;;;;;;0.58;58.77;100739.09;5026083;28;20075;-74
2022/01/07 09:01:02;;;;;;;11.95;5.70;;;;;;;1.24;57.18;100732.09;5030840;28;20032;-73
2022/01/07 09:03:28;;;;;;;12.88;5.55;;;;;;;1.32;57.07;100737.19;5053433;28;20045;-73
2022/01/07 09:05:54;;;;;;;8.95;5.55;;;;;;;1.25;57.26;100740.66;5038445;28;20554;-74
2022/01/07 09:08:24;;;;;;;11.10;5.90;;;;;;;0.72;58.11;100745.06;5053903;28;20522;-73
2022/01/07 09:10:49;;;;;;;11.55;6.25;;;;;;;1.08;58.01;100749.28;5039401;28;20029;-74
2022/01/07 09:13:15;;;;;;;8.80;5.63;;;;;;;1.03;58.08;100745.84;5049138;28;20441;-74
2022/01/07 09:15:40;;;;;;;13.52;6.40;;;;;;;0.87;58.24;100757.91;5052377;28;20033;-74
2022/01/07 09:18:10;;;;;;;11.55;5.72;;;;;;;0.92;58.48;100747.59;5053173;28;20434;-74
2022/01/07 09:20:37;;;;;;;9.90;5.57;;;;;;;1.30;57.73;100746.63;5049162;28;20469;-76
2022/01/07 09:23:03;;;;;;;11.02;6.32;;;;;;;0.83;58.89;100742.47;5053620;28;20118;-74
2022/01/07 09:25:29;;;;;;;8.52;6.57;;;;;;;0.96;58.56;100735.59;5049124;28;20044;-76
2022/01/07 09:27:54;;;;;;;11.25;6.10;;;;;;;1.06;58.37;100745.00;5031925;28;20127;-76
2022/01/07 09:30:19;;;;;;;11.35;5.88;;;;;;;1.11;58.03;100749.28;5051879;28;20508;-75
2022/01/07 09:32:45;;;;;;;11.05;6.13;;;;;;;1.15;58.31;100746.69;5047665;28;20628;-73
2022/01/07 09:35:11;;;;;;;12.55;6.47;;;;;;;1.46;57.14;100745.78;5028741;28;20202;-74
2022/01/07 09:37:39;;;;;;;10.85;5.10;;;;;;;1.03;58.65;100740.72;5037160;28;20093;-74
2022/01/07 09:40:05;;;;;;;14.18;6.53;;;;;;;1.17;58.32;100742.38;5034772;28;20037;-74
2022/01/07 09:42:31;;;;;;;17.95;6.00;;;;;;;1.24;57.65;100736.38;5051415;28;20041;-74
2022/01/07 09:44:56;;;;;;;8.32;5.82;;;;;;;1.08;58.45;100733.84;5028563;28;20501;-73
2022/01/07 09:47:29;;;;;;;9.23;5.95;;;;;;;0.74;59.02;100721.91;5050486;28;20582;-74
2022/01/07 09:49:57;;;;;;;9.93;6.88;;;;;;;1.28;58.28;100744.09;5028178;28;20119;-75
2022/01/07 09:52:26;;;;;;;11.63;5.93;;;;;;;1.92;56.76;100735.19;5033589;28;20502;-74
2022/01/07 09:54:54;;;;;;;6.95;5.30;;;;;;;1.65;56.92;100732.78;5051182;28;20024;-74
2022/01/07 09:57:19;;;;;;;13.30;5.93;;;;;;;1.63;57.56;100729.38;5045594;28;20275;-74
2022/01/07 09:59:54;;;;;;;11.68;5.80;;;;;;;1.89;56.22;100730.06;5052559;28;20052;-74
2022/01/07 10:02:19;;;;;;;13.48;7.38;;;;;;;0.83;58.83;100737.31;5036462;28;20049;-74
2022/01/07 10:04:47;;;;;;;9.73;5.75;;;;;;;1.79;56.86;100724.97;5049896;28;20036;-74
2022/01/07 10:07:16;;;;;;;17.92;5.95;;;;;;;2.46;55.68;100731.38;5054870;28;20075;-76
2022/01/07 10:09:57;;;;;;;11.98;5.70;;;;;;;2.10;56.38;100729.06;5046858;28;20305;-75
2022/01/07 10:12:25;;;;;;;12.27;5.30;;;;;;;2.55;55.62;100731.28;5053148;28;20091;-75
2022/01/07 10:15:10;;;;;;;11.77;5.78;;;;;;;2.51;55.17;100719.28;5050830;28;20069;-74
2022/01/07 10:17:36;;;;;;;11.38;5.45;;;;;;;2.70;55.24;100730.31;5049982;28;20044;-76
2022/01/07 10:20:04;;;;;;;12.98;5.13;;;;;;;2.54;55.18;100734.75;5043875;28;20514;-74
2022/01/07 10:22:50;;;;;;;13.50;4.80;;;;;;;2.44;54.96;100743.41;5050965;28;20064;-74
2022/01/07 10:25:23;;;;;;;7.45;5.57;;;;;;;1.84;56.15;100726.69;5052502;28;20531;-75
2022/01/07 10:27:49;;;;;;;11.18;5.90;;;;;;;2.43;55.23;100728.81;5050874;28;20575;-75
2022/01/07 10:30:25;;;;;;;9.20;6.03;;;;;;;1.94;56.88;100723.16;5049929;28;20045;-74
2022/01/07 10:32:52;;;;;;;12.30;6.07;;;;;;;2.00;56.78;100721.41;5031279;28;20076;-74
2022/01/07 10:35:23;;;;;;;12.20;5.97;;;;;;;2.81;54.71;100717.28;5039906;28;20032;-75
2022/01/07 10:37:49;;;;;;;11.80;6.13;;;;;;;1.86;57.22;100713.75;5043167;28;20086;-75
2022/01/07 10:40:23;;;;;;;13.35;6.28;;;;;;;1.93;56.65;100716.31;5054170;28;20778;-75
2022/01/07 10:42:50;;;;;;;12.13;6.20;;;;;;;2.06;56.63;100731.69;5052191;28;20047;-74
2022/01/07 10:45:18;;;;;;;10.68;6.47;;;;;;;2.14;56.97;100722.16;5036387;28;20037;-75
2022/01/07 10:47:49;;;;;;;16.50;7.93;;;;;;;2.06;57.20;100722.22;5019725;28;20491;-75
2022/01/07 10:50:21;;;;;;;13.90;6.65;;;;;;;2.29;56.69;100722.06;5043042;28;20044;-75
2022/01/07 10:52:46;;;;;;;;;;;;;;;2.05;57.05;100719.66;5035551;28;20119;-74
2022/01/07 10:55:15;;;;;;;20.77;6.28;;;;;;;1.82;57.79;100728.41;5024048;28;20066;-75
2022/01/07 10:57:49;;;;;;;22.70;8.63;;;;;;;1.77;58.25;100714.66;5049949;28;20041;-74
2022/01/07 11:00:17;;;;;;;15.00;6.82;;;;;;;1.65;58.05;100710.44;5043171;28;20097;-75
2022/01/07 11:02:45;;;;;;;19.33;7.32;;;;;;;1.99;57.55;100704.22;5052507;28;20074;-74
2022/01/07 11:05:14;;;;;;;19.83;7.70;;;;;;;2.67;55.83;100713.13;5027562;28;20033;-74
2022/01/07 11:07:39;;;;;;;16.33;7.60;;;;;;;2.42;55.99;100714.19;5039271;28;20045;-74
2022/01/07 11:10:08;;;;;;;19.77;8.70;;;;;;;2.39;57.11;100709.09;5056844;28;20348;-75
2022/01/07 11:12:35;;;;;;;17.95;7.75;;;;;;;2.42;56.39;100715.09;5052568;28;20123;-74
2022/01/07 11:15:06;;;;;;;15.98;8.10;;;;;;;2.22;56.76;100712.66;5056256;28;20441;-74
2022/01/07 11:17:31;;;;;;;15.98;6.75;;;;;;;1.88;57.83;100712.88;5055003;28;20140;-75
2022/01/07 11:19:59;;;;;;;17.23;8.80;;;;;;;2.43;56.51;100708.19;5047929;28;20128;-74
2022/01/07 11:22:26;;;;;;;25.65;7.70;;;;;;;2.49;56.15;100696.09;5034816;28;20053;-74
2022/01/07 11:24:59;;;;;;;16.35;7.60;;;;;;;2.27;56.46;100698.00;5026303;28;20120;-74
2022/01/07 11:27:27;;;;;;;11.95;7.43;;;;;;;2.62;56.00;100699.38;5037102;28;20110;-75
2022/01/07 11:29:59;;;;;;;20.48;7.28;;;;;;;2.31;56.40;100702.28;5047530;28;20036;-74